14°C
Porth, Newquay, Cornwall. UK  Tell A Friend
 Ad **Ad
Updated19/10/2017 15:15 
 


More METAR Reports From


Metar Station     Metar Station     Metar Station     Metar Station     Metar Station
EGBB Birmingham     EGBE Coventry     EGLL London Heathrow     EGKK London Gatwick     EGGP Liverpool
EGGW Luton     EGNX East Midlands     EGLC London City     EGCC Mancester Intl     EGSS Stanstead
Local Metars Here                                
EGBB - Birmingham Airpo, United Kingdom
Updated: 19/10/2017 14:50
Mist, Mostly cloudy
Mist, Mostly cloudy
 Wind from ESE
Wind: ESE 10 mph , 17 km/h, 9 kts
Temperature: 15°C
Dew Point: 15°C
Humidity: 100%
Barometer: 999 hPa
Summary: Mist
Clouds: Mostly Cloudy
Visibility: 2 miles , 4 km
Cloud details: Mostly Cloudy 274 m
2017/10/19 13:50 EGBB 191350Z 12009KT 080V150 3600 BR BKN009 15/15 Q0999
EGBE - Coventry Airport, United Kingdom
Updated: 18/07/2017 14:50

NOT Current
Clear
Clear
 Wind from E
Wind: E 16 mph , 26 km/h, 14 kts
Temperature: 27°C
Heat Index: 27°C
Dew Point: 14°C
Humidity: 45%
Barometer: 1015 hPa
Summary: Clear
Visibility: greater than 7 miles , 10 km
2017/07/18 13:50 EGBE 181350Z 10014KT 060V120 CAVOK 27/14 Q1015
 
EGLL - London/Heathrow, United Kingdom
Updated: 19/10/2017 14:50
Overcast
Overcast
 Wind from S
Wind: S 14 mph , 22 km/h, 12 kts
Temperature: 17°C
Dew Point: 14°C
Humidity: 83%
Barometer: 1001 hPa
Clouds: Overcast
Visibility: 6 miles , 10 km
Cloud details: Mostly Cloudy 396 m
Overcast 1128 m
2017/10/19 13:50 EGLL 191350Z AUTO 18012KT 9999 BKN013 OVC037 17/14 Q1001
EGKK - London/Gatwick A, United Kingdom
Updated: 19/10/2017 14:50
Light rain, Overcast
Light rain, Overcast
 Wind from S
Wind: S 12 mph , 19 km/h, 10 kts
Temperature: 16°C
Dew Point: 15°C
Humidity: 94%
Barometer: 1002 hPa
Summary: Light Rain
Clouds: Overcast
Visibility: 3 miles , 5 km
Cloud details: Overcast 213 m
2017/10/19 13:50 EGKK 191350Z 19010KT 160V220 5000 -RA OVC007 16/15 Q1002
 
EGGP - Liverpool Airpor, United Kingdom
Updated: 19/10/2017 14:50
Rain drizzle, Overcast
Rain drizzle, Overcast
 Wind from E
Wind: E 7 mph , 11 km/h, 6 kts
Temperature: 13°C
Dew Point: 12°C
Humidity: 94%
Barometer: 999 hPa
Summary: Rain Drizzle
Clouds: Overcast
Visibility: 3 miles , 5 km
Cloud details: Overcast 61 m
2017/10/19 13:50 EGGP 191350Z 09006KT 4500 RADZ OVC002 13/12 Q0999
EGGW - Luton Airport, United Kingdom
Updated: 19/10/2017 14:50
Overcast
Overcast
 Wind from S
Wind: S 10 mph , 17 km/h, 9 kts
Temperature: 16°C
Dew Point: 15°C
Humidity: 94%
Barometer: 1001 hPa
Clouds: Overcast
Visibility: 6 miles , 10 km
Cloud details: Mostly Cloudy 274 m
Overcast 427 m
2017/10/19 13:50 EGGW 191350Z AUTO 17009KT 9999 BKN009 OVC014 16/15 Q1001
 
EGNX - East Midlands, United Kingdom
Updated: 19/10/2017 14:50
Mist, Overcast
Mist, Overcast
 Wind from E
Wind: E 8 mph , 13 km/h, 7 kts
Temperature: 14°C
Dew Point: 14°C
Humidity: 100%
Barometer: 1000 hPa
Summary: Mist
Clouds: Overcast
Visibility: 1 mile , 2 km
Cloud details: Mostly Cloudy 30 m
Overcast 244 m
2017/10/19 13:50 EGNX 191350Z 10007KT 1800 BR BKN001 OVC008 14/14 Q1000
EGLC - London City Airp, United Kingdom
Updated: 19/10/2017 14:50
Overcast
Overcast
 Wind from S
Wind: S 12 mph , 19 km/h, 10 kts
Temperature: 18°C
Dew Point: 15°C
Humidity: 83%
Barometer: 1002 hPa
Clouds: Overcast
Visibility: 6 miles , 10 km
Cloud details: Mostly Cloudy 366 m
Overcast 518 m
2017/10/19 13:50 EGLC 191350Z AUTO 19010KT 160V230 9999 BKN012 OVC017 18/15 Q1002
 
EGCC - Manchester Intl, United Kingdom
Updated: 19/10/2017 14:50
Heavy rain, Thunderstorm
Heavy rain, Thunderstorm
 Wind from E
Wind: E 7 mph , 11 km/h, 6 kts
Temperature: 13°C
Dew Point: 12°C
Humidity: 94%
Barometer: 999 hPa
Summary: Heavy Rain
Clouds: Thunderstorm
Visibility: 2 miles , 3 km
Cloud details: Few Clouds 701 m
Partly Cloudy 975 m
Mostly Cloudy 1189 m
2017/10/19 13:50 EGCC 191350Z AUTO 09006KT 3300 +RA FEW023/// SCT032/// BKN039/// //////CB 13/12 Q0999 TEMPO -RA
EGSS - Stansted Airport, United Kingdom
Updated: 19/10/2017 14:50
Mostly Cloudy
Mostly Cloudy
 Wind from S
Wind: S 13 mph , 20 km/h, 11 kts
Temperature: 17°C
Dew Point: 14°C
Humidity: 83%
Barometer: 1002 hPa
Clouds: Mostly Cloudy
Visibility: 6 miles , 10 km
Cloud details: Mostly Cloudy 427 m
2017/10/19 13:50 EGSS 191350Z AUTO 17011KT 9999 BKN014 17/14 Q1002

Metar, brief description

METAR is a format for reporting weather information. A METAR weather report is predominantly used by pilots in fulfillment of a part of a pre-flight weather briefing, and by meteorologists, who use aggregated METAR information to assist in weather forecasting.

Raw METAR is the most popular format in the world for the transmission of weather data. Each METAR report contains essential information about the current weather conditions: Temperature, Dew Point, Barometric Pressure, Wind Speed and Direction, Visibility, Clouds Cover, Current Weather (Rain, Thunderstorms, Hail, Snow and so on...), here is an example of a raw metar report for EGHQ (Newquay airport).
METAR not available